TimePDT,TemperatureF,Dew PointF,Humidity,Sea Level PressureIn,VisibilityMPH,Wind Direction,Wind SpeedMPH,Gust SpeedMPH,PrecipitationIn,Events,Conditions,WindDirDegrees,DateUTC
12:56 AM,55.9,17.1,22,30.03,10.0,SSW,6.9,-,N/A,,Clear,210,2011-10-23 07:56:00
1:56 AM,54.0,17.1,23,30.03,10.0,Calm,Calm,-,N/A,,Clear,0,2011-10-23 08:56:00
2:56 AM,52.0,17.1,25,30.03,10.0,SSW,6.9,-,N/A,,Clear,200,2011-10-23 09:56:00
3:56 AM,52.0,18.0,26,30.01,10.0,SW,3.5,-,N/A,,Clear,230,2011-10-23 10:56:00
4:56 AM,50.0,18.0,28,30.02,10.0,SSW,8.1,-,N/A,,Clear,200,2011-10-23 11:56:00
5:56 AM,48.9,17.1,28,30.03,10.0,SSE,4.6,-,N/A,,Clear,150,2011-10-23 12:56:00
6:56 AM,45.0,17.1,33,30.05,10.0,West,4.6,-,N/A,,Clear,270,2011-10-23 13:56:00
7:56 AM,52.0,18.0,26,30.06,10.0,Calm,Calm,-,N/A,,Clear,0,2011-10-23 14:56:00
8:56 AM,64.0,21.0,19,30.07,10.0,Calm,Calm,-,N/A,,Clear,0,2011-10-23 15:56:00
9:56 AM,69.1,21.9,17,30.06,10.0,Calm,Calm,-,N/A,,Clear,0,2011-10-23 16:56:00
10:56 AM,78.1,21.9,12,30.05,10.0,Calm,Calm,-,N/A,,Clear,0,2011-10-23 17:56:00
11:56 AM,82.9,19.9,10,30.02,10.0,SE,3.5,-,N/A,,Clear,130,2011-10-23 18:56:00
12:56 PM,86.0,19.9,9,29.99,10.0,Calm,Calm,-,N/A,,Clear,0,2011-10-23 19:56:00
1:56 PM,87.1,21.9,9,29.96,10.0,ESE,5.8,-,N/A,,Clear,110,2011-10-23 20:56:00
2:56 PM,88.0,21.9,9,29.94,10.0,Variable,4.6,-,N/A,,Clear,0,2011-10-23 21:56:00
3:56 PM,89.1,21.9,9,29.92,10.0,NE,3.5,-,N/A,,Clear,50,2011-10-23 22:56:00
4:56 PM,88.0,21.9,9,29.92,10.0,Calm,Calm,-,N/A,,Clear,0,2011-10-23 23:56:00
5:56 PM,84.0,21.9,10,29.92,10.0,Calm,Calm,-,N/A,,Clear,0,2011-10-24 00:56:00
6:56 PM,73.0,19.9,14,29.95,10.0,South,5.8,-,N/A,,Clear,190,2011-10-24 01:56:00
7:56 PM,70.0,19.9,15,29.95,10.0,South,6.9,-,N/A,,Clear,190,2011-10-24 02:56:00
8:56 PM,70.0,21.0,16,29.95,10.0,SSW,8.1,-,N/A,,Clear,200,2011-10-24 03:56:00
9:56 PM,66.0,21.0,18,29.96,10.0,SSW,8.1,-,N/A,,Clear,200,2011-10-24 04:56:00
10:56 PM,64.0,21.9,20,29.95,10.0,SSW,11.5,-,N/A,,Clear,200,2011-10-24 05:56:00
11:56 PM,63.0,21.9,21,29.94,10.0,SSW,8.1,-,N/A,,Clear,200,2011-10-24 06:56:00